sensor_id;sensor_type;location;lat;lon;timestamp;pressure;altitude;pressure_sealevel;temperature;humidity
75629;BME280;64213;46.452;16.994;2023-05-10T00:00:37;99939.37;;;8.55;87.34
75629;BME280;64213;46.452;16.994;2023-05-10T00:03:39;99933.37;;;8.53;87.37
75629;BME280;64213;46.452;16.994;2023-05-10T00:06:42;99925.53;;;8.51;87.34
75629;BME280;64213;46.452;16.994;2023-05-10T00:09:44;99928.44;;;8.47;87.38
75629;BME280;64213;46.452;16.994;2023-05-10T00:12:46;99928.78;;;8.41;87.69
75629;BME280;64213;46.452;16.994;2023-05-10T00:15:48;99927.69;;;8.45;87.58
75629;BME280;64213;46.452;16.994;2023-05-10T00:18:49;99925.72;;;8.48;87.42
75629;BME280;64213;46.452;16.994;2023-05-10T00:21:51;99920.03;;;8.40;87.86
75629;BME280;64213;46.452;16.994;2023-05-10T00:24:53;99913.22;;;8.36;88.19
75629;BME280;64213;46.452;16.994;2023-05-10T00:27:55;99917.13;;;8.29;88.31
75629;BME280;64213;46.452;16.994;2023-05-10T00:30:59;99915.19;;;8.16;88.78
75629;BME280;64213;46.452;16.994;2023-05-10T00:34:00;99913.25;;;8.04;88.65
75629;BME280;64213;46.452;16.994;2023-05-10T00:37:03;99907.53;;;7.96;88.78
75629;BME280;64213;46.452;16.994;2023-05-10T00:40:05;99903.56;;;7.89;88.89
75629;BME280;64213;46.452;16.994;2023-05-10T00:43:08;99898.88;;;7.94;88.54
75629;BME280;64213;46.452;16.994;2023-05-10T00:46:09;99905.09;;;7.93;88.14
75629;BME280;64213;46.452;16.994;2023-05-10T00:49:12;99908.06;;;7.87;88.17
75629;BME280;64213;46.452;16.994;2023-05-10T00:52:14;99909.41;;;7.78;88.28
75629;BME280;64213;46.452;16.994;2023-05-10T00:55:17;99902.94;;;7.68;88.42
75629;BME280;64213;46.452;16.994;2023-05-10T00:58:19;99906.91;;;7.59;88.66
75629;BME280;64213;46.452;16.994;2023-05-10T01:01:22;99898.59;;;7.51;88.92
75629;BME280;64213;46.452;16.994;2023-05-10T01:04:24;99895.53;;;7.59;88.64
75629;BME280;64213;46.452;16.994;2023-05-10T01:07:27;99887.75;;;7.57;89.05
75629;BME280;64213;46.452;16.994;2023-05-10T01:10:30;99893.53;;;7.64;89.00
75629;BME280;64213;46.452;16.994;2023-05-10T01:13:34;99888.25;;;7.64;89.11
75629;BME280;64213;46.452;16.994;2023-05-10T01:16:39;99887.25;;;7.66;89.11
75629;BME280;64213;46.452;16.994;2023-05-10T01:19:42;99884.34;;;7.71;88.98
75629;BME280;64213;46.452;16.994;2023-05-10T01:34:02;99878.13;;;7.72;89.56
75629;BME280;64213;46.452;16.994;2023-05-10T01:37:19;99876.38;;;7.73;89.40
75629;BME280;64213;46.452;16.994;2023-05-10T01:40:39;99867.38;;;7.77;90.21
75629;BME280;64213;46.452;16.994;2023-05-10T01:48:10;99862.09;;;7.77;90.69
75629;BME280;64213;46.452;16.994;2023-05-10T01:51:04;99852.91;;;7.84;89.88
75629;BME280;64213;46.452;16.994;2023-05-10T01:54:08;99856.22;;;7.87;90.53
75629;BME280;64213;46.452;16.994;2023-05-10T01:57:13;99844.44;;;7.79;90.90
75629;BME280;64213;46.452;16.994;2023-05-10T02:00:16;99851.41;;;7.80;91.13
75629;BME280;64213;46.452;16.994;2023-05-10T02:03:22;99845.47;;;7.76;91.86
75629;BME280;64213;46.452;16.994;2023-05-10T02:06:25;99839.53;;;7.73;91.85
75629;BME280;64213;46.452;16.994;2023-05-10T02:09:29;99850.06;;;7.73;92.34
75629;BME280;64213;46.452;16.994;2023-05-10T02:12:41;99839.91;;;7.65;92.28
75629;BME280;64213;46.452;16.994;2023-05-10T02:15:44;99845.69;;;7.72;92.32
75629;BME280;64213;46.452;16.994;2023-05-10T02:18:49;99840.69;;;7.67;92.60
75629;BME280;64213;46.452;16.994;2023-05-10T02:21:52;99834.59;;;7.66;92.62
75629;BME280;64213;46.452;16.994;2023-05-10T02:24:58;99834.41;;;7.69;92.68
75629;BME280;64213;46.452;16.994;2023-05-10T02:28:03;99841.37;;;7.71;93.00
75629;BME280;64213;46.452;16.994;2023-05-10T02:31:07;99836.22;;;7.69;93.12
75629;BME280;64213;46.452;16.994;2023-05-10T02:34:11;99839.53;;;7.73;93.72
75629;BME280;64213;46.452;16.994;2023-05-10T02:37:15;99839.34;;;7.76;93.58
75629;BME280;64213;46.452;16.994;2023-05-10T02:40:21;99835.84;;;7.75;93.15
75629;BME280;64213;46.452;16.994;2023-05-10T02:43:24;99844.62;;;7.76;93.35
75629;BME280;64213;46.452;16.994;2023-05-10T02:46:27;99834.50;;;7.68;93.49
75629;BME280;64213;46.452;16.994;2023-05-10T02:49:29;99843.06;;;7.72;93.13
75629;BME280;64213;46.452;16.994;2023-05-10T02:52:39;99840.69;;;7.67;93.17
75629;BME280;64213;46.452;16.994;2023-05-10T02:55:44;99846.97;;;7.64;93.36
75629;BME280;64213;46.452;16.994;2023-05-10T02:58:48;99844.44;;;7.63;93.29
75629;BME280;64213;46.452;16.994;2023-05-10T03:01:50;99841.72;;;7.64;93.37
75629;BME280;64213;46.452;16.994;2023-05-10T03:04:52;99839.00;;;7.66;93.64
75629;BME280;64213;46.452;16.994;2023-05-10T03:07:54;99832.13;;;7.63;93.49
75629;BME280;64213;46.452;16.994;2023-05-10T03:18:00;99829.66;;;7.60;93.77
75629;BME280;64213;46.452;16.994;2023-05-10T03:21:04;99828.81;;;7.60;93.95
75629;BME280;64213;46.452;16.994;2023-05-10T03:24:11;99832.03;;;7.65;94.19
75629;BME280;64213;46.452;16.994;2023-05-10T03:27:14;99824.41;;;7.60;94.03
75629;BME280;64213;46.452;16.994;2023-05-10T03:30:17;99819.13;;;7.60;93.89
75629;BME280;64213;46.452;16.994;2023-05-10T03:33:20;99819.13;;;7.60;93.93
75629;BME280;64213;46.452;16.994;2023-05-10T03:36:22;99824.22;;;7.63;94.73
75629;BME280;64213;46.452;16.994;2023-05-10T03:39:52;99815.22;;;7.67;94.71
75629;BME280;64213;46.452;16.994;2023-05-10T03:42:55;99823.38;;;7.63;95.17
75629;BME280;64213;46.452;16.994;2023-05-10T03:45:57;99818.19;;;7.61;94.62
75629;BME280;64213;46.452;16.994;2023-05-10T03:48:59;99821.44;;;7.66;95.08
75629;BME280;64213;46.452;16.994;2023-05-10T03:52:01;99816.06;;;7.68;95.12
75629;BME280;64213;46.452;16.994;2023-05-10T03:55:03;99819.72;;;7.65;95.20
75629;BME280;64213;46.452;16.994;2023-05-10T03:58:05;99824.81;;;7.68;95.12
75629;BME280;64213;46.452;16.994;2023-05-10T04:01:07;99827.53;;;7.67;95.38
75629;BME280;64213;46.452;16.994;2023-05-10T04:04:09;99824.81;;;7.68;95.06
75629;BME280;64213;46.452;16.994;2023-05-10T04:07:11;99830.00;;;7.70;95.12
75629;BME280;64213;46.452;16.994;2023-05-10T04:10:13;99843.75;;;7.75;94.78
75629;BME280;64213;46.452;16.994;2023-05-10T04:13:15;99841.97;;;7.76;94.85
75629;BME280;64213;46.452;16.994;2023-05-10T04:16:17;99850.47;;;7.81;94.70
75629;BME280;64213;46.452;16.994;2023-05-10T04:19:20;99850.13;;;7.87;94.37
75629;BME280;64213;46.452;16.994;2023-05-10T04:22:21;99849.88;;;7.91;94.22
75629;BME280;64213;46.452;16.994;2023-05-10T04:25:23;99850.63;;;7.93;94.32
75629;BME280;64213;46.452;16.994;2023-05-10T04:28:25;99849.44;;;7.99;94.13
75629;BME280;64213;46.452;16.994;2023-05-10T04:31:27;99853.34;;;8.08;93.75
75629;BME280;64213;46.452;16.994;2023-05-10T04:34:30;99857.38;;;8.13;93.38
75629;BME280;64213;46.452;16.994;2023-05-10T04:37:32;99852.72;;;8.19;93.08
75629;BME280;64213;46.452;16.994;2023-05-10T04:40:34;99863.25;;;8.19;93.16
75629;BME280;64213;46.452;16.994;2023-05-10T04:43:36;99855.78;;;8.27;92.67
75629;BME280;64213;46.452;16.994;2023-05-10T04:46:39;99856.25;;;8.33;92.33
75629;BME280;64213;46.452;16.994;2023-05-10T04:49:41;99857.34;;;8.45;92.29
75629;BME280;64213;46.452;16.994;2023-05-10T04:52:43;99868.22;;;8.55;91.90
75629;BME280;64213;46.452;16.994;2023-05-10T04:55:45;99854.78;;;8.59;91.29
75629;BME280;64213;46.452;16.994;2023-05-10T04:58:47;99856.22;;;8.79;90.92
75629;BME280;64213;46.452;16.994;2023-05-10T05:01:49;99858.50;;;8.85;90.41
75629;BME280;64213;46.452;16.994;2023-05-10T05:04:51;99861.16;;;9.00;90.10
75629;BME280;64213;46.452;16.994;2023-05-10T05:07:53;99871.25;;;9.07;89.62
75629;BME280;64213;46.452;16.994;2023-05-10T05:10:55;99867.41;;;9.13;89.52
75629;BME280;64213;46.452;16.994;2023-05-10T05:13:57;99869.75;;;9.18;88.97
75629;BME280;64213;46.452;16.994;2023-05-10T05:17:00;99865.97;;;9.22;88.71
75629;BME280;64213;46.452;16.994;2023-05-10T05:20:03;99862.38;;;9.37;88.61
75629;BME280;64213;46.452;16.994;2023-05-10T05:23:05;99865.94;;;9.50;88.09
75629;BME280;64213;46.452;16.994;2023-05-10T05:26:07;99876.12;;;9.57;87.46
75629;BME280;64213;46.452;16.994;2023-05-10T05:29:09;99876.66;;;9.76;86.65
75629;BME280;64213;46.452;16.994;2023-05-10T05:32:11;99874.59;;;9.81;86.06
75629;BME280;64213;46.452;16.994;2023-05-10T05:35:13;99874.66;;;9.94;85.11
75629;BME280;64213;46.452;16.994;2023-05-10T05:38:16;99879.94;;;9.94;84.62
75629;BME280;64213;46.452;16.994;2023-05-10T05:41:19;99879.16;;;10.06;85.07
75629;BME280;64213;46.452;16.994;2023-05-10T05:44:21;99885.22;;;10.21;84.23
75629;BME280;64213;46.452;16.994;2023-05-10T05:47:23;99883.53;;;10.34;83.14
75629;BME280;64213;46.452;16.994;2023-05-10T05:50:25;99882.03;;;10.30;83.11
75629;BME280;64213;46.452;16.994;2023-05-10T05:53:27;99875.12;;;10.55;82.60
75629;BME280;64213;46.452;16.994;2023-05-10T05:56:29;99870.75;;;11.19;80.31
75629;BME280;64213;46.452;16.994;2023-05-10T05:59:31;99883.84;;;11.59;78.48
75629;BME280;64213;46.452;16.994;2023-05-10T06:02:33;99879.22;;;11.99;77.96
75629;BME280;64213;46.452;16.994;2023-05-10T06:05:35;99877.88;;;12.42;76.20
75629;BME280;64213;46.452;16.994;2023-05-10T06:08:37;99875.09;;;12.78;72.90
75629;BME280;64213;46.452;16.994;2023-05-10T06:11:39;99875.19;;;13.23;73.85
75629;BME280;64213;46.452;16.994;2023-05-10T06:14:42;99873.75;;;13.19;72.19
75629;BME280;64213;46.452;16.994;2023-05-10T06:17:44;99885.75;;;13.25;71.05
75629;BME280;64213;46.452;16.994;2023-05-10T06:20:46;99873.44;;;14.12;69.11
75629;BME280;64213;46.452;16.994;2023-05-10T06:23:48;99866.88;;;14.28;69.01
75629;BME280;64213;46.452;16.994;2023-05-10T06:26:50;99872.94;;;14.18;68.13
75629;BME280;64213;46.452;16.994;2023-05-10T06:29:52;99874.53;;;14.64;66.36
75629;BME280;64213;46.452;16.994;2023-05-10T06:33:10;99869.84;;;14.78;65.37
75629;BME280;64213;46.452;16.994;2023-05-10T06:36:12;99863.19;;;14.93;65.73
75629;BME280;64213;46.452;16.994;2023-05-10T06:39:14;99866.63;;;14.31;67.01
75629;BME280;64213;46.452;16.994;2023-05-10T06:42:17;99869.22;;;14.42;66.07
75629;BME280;64213;46.452;16.994;2023-05-10T06:45:20;99866.38;;;15.29;63.91
75629;BME280;64213;46.452;16.994;2023-05-10T06:48:22;99864.19;;;15.74;63.55
75629;BME280;64213;46.452;16.994;2023-05-10T06:51:24;99859.97;;;15.10;64.01
75629;BME280;64213;46.452;16.994;2023-05-10T06:54:46;99857.66;;;16.08;61.44
75629;BME280;64213;46.452;16.994;2023-05-10T06:57:48;99860.50;;;16.64;59.63
75629;BME280;64213;46.452;16.994;2023-05-10T07:00:50;99860.66;;;16.72;58.04
75629;BME280;64213;46.452;16.994;2023-05-10T07:03:52;99871.75;;;16.78;57.91
75629;BME280;64213;46.452;16.994;2023-05-10T07:06:54;99867.38;;;16.96;56.61
75629;BME280;64213;46.452;16.994;2023-05-10T07:09:56;99860.19;;;17.53;56.75
75629;BME280;64213;46.452;16.994;2023-05-10T07:12:59;99869.06;;;16.29;58.30
75629;BME280;64213;46.452;16.994;2023-05-10T07:16:03;99855.84;;;16.95;57.90
75629;BME280;64213;46.452;16.994;2023-05-10T07:19:05;99851.25;;;17.25;56.63
75629;BME280;64213;46.452;16.994;2023-05-10T07:22:07;99856.75;;;18.34;53.24
75629;BME280;64213;46.452;16.994;2023-05-10T07:25:09;99860.78;;;16.32;57.43
75629;BME280;64213;46.452;16.994;2023-05-10T07:28:13;99847.38;;;17.84;54.81
75629;BME280;64213;46.452;16.994;2023-05-10T07:31:15;99853.63;;;18.56;52.29
75629;BME280;64213;46.452;16.994;2023-05-10T07:34:17;99846.88;;;18.70;52.05
75629;BME280;64213;46.452;16.994;2023-05-10T07:37:19;99859.13;;;18.37;51.60
75629;BME280;64213;46.452;16.994;2023-05-10T07:40:21;99857.59;;;18.88;52.34
75629;BME280;64213;46.452;16.994;2023-05-10T07:43:23;99861.19;;;18.79;52.39
75629;BME280;64213;46.452;16.994;2023-05-10T07:46:25;99862.72;;;18.10;52.08
75629;BME280;64213;46.452;16.994;2023-05-10T07:49:27;99854.91;;;18.70;51.04
75629;BME280;64213;46.452;16.994;2023-05-10T07:52:29;99853.72;;;19.09;49.82
75629;BME280;64213;46.452;16.994;2023-05-10T07:55:31;99850.03;;;19.70;49.50
75629;BME280;64213;46.452;16.994;2023-05-10T07:58:34;99852.44;;;19.55;49.26
75629;BME280;64213;46.452;16.994;2023-05-10T08:01:36;99852.25;;;19.48;49.77
75629;BME280;64213;46.452;16.994;2023-05-10T08:04:38;99850.47;;;19.57;47.84
75629;BME280;64213;46.452;16.994;2023-05-10T08:07:40;99859.94;;;20.20;47.14
75629;BME280;64213;46.452;16.994;2023-05-10T08:10:42;99858.16;;;20.70;46.25
75629;BME280;64213;46.452;16.994;2023-05-10T08:13:48;99858.34;;;20.52;47.58
75629;BME280;64213;46.452;16.994;2023-05-10T08:16:50;99862.84;;;20.76;45.22
75629;BME280;64213;46.452;16.994;2023-05-10T08:19:52;99855.75;;;21.24;45.33
75629;BME280;64213;46.452;16.994;2023-05-10T08:22:54;99850.25;;;21.65;44.17
75629;BME280;64213;46.452;16.994;2023-05-10T08:25:56;99859.34;;;22.57;41.96
75629;BME280;64213;46.452;16.994;2023-05-10T08:28:57;99867.91;;;22.38;42.27
75629;BME280;64213;46.452;16.994;2023-05-10T08:31:59;99866.69;;;21.39;44.00
75629;BME280;64213;46.452;16.994;2023-05-10T08:35:02;99860.28;;;19.14;47.50
75629;BME280;64213;46.452;16.994;2023-05-10T08:38:04;99849.09;;;20.87;44.64
75629;BME280;64213;46.452;16.994;2023-05-10T08:41:06;99849.56;;;20.82;44.74
75629;BME280;64213;46.452;16.994;2023-05-10T08:44:09;99856.97;;;20.97;44.51
75629;BME280;64213;46.452;16.994;2023-05-10T08:47:12;99855.81;;;20.75;43.57
75629;BME280;64213;46.452;16.994;2023-05-10T08:50:16;99857.22;;;20.12;44.33
75629;BME280;64213;46.452;16.994;2023-05-10T08:53:19;99852.41;;;19.81;45.57
75629;BME280;64213;46.452;16.994;2023-05-10T08:56:23;99845.69;;;21.01;43.61
75629;BME280;64213;46.452;16.994;2023-05-10T08:59:25;99838.09;;;21.77;42.35
75629;BME280;64213;46.452;16.994;2023-05-10T09:02:27;99839.97;;;21.12;43.12
75629;BME280;64213;46.452;16.994;2023-05-10T09:05:29;99856.28;;;20.54;44.00
75629;BME280;64213;46.452;16.994;2023-05-10T09:08:32;99837.94;;;21.23;42.77
75629;BME280;64213;46.452;16.994;2023-05-10T09:11:34;99838.69;;;22.49;39.78
75629;BME280;64213;46.452;16.994;2023-05-10T09:14:37;99832.13;;;23.64;39.51
75629;BME280;64213;46.452;16.994;2023-05-10T09:17:40;99833.81;;;22.68;39.48
75629;BME280;64213;46.452;16.994;2023-05-10T09:20:42;99841.56;;;22.48;39.98
75629;BME280;64213;46.452;16.994;2023-05-10T09:23:45;99852.59;;;19.80;45.44
75629;BME280;64213;46.452;16.994;2023-05-10T09:26:49;99841.47;;;19.66;45.56
75629;BME280;64213;46.452;16.994;2023-05-10T09:29:51;99840.66;;;21.06;42.35
75629;BME280;64213;46.452;16.994;2023-05-10T09:32:57;99842.63;;;21.21;42.38
75629;BME280;64213;46.452;16.994;2023-05-10T09:36:06;99844.19;;;19.74;45.98
75629;BME280;64213;46.452;16.994;2023-05-10T09:39:09;99842.81;;;20.37;44.86
75629;BME280;64213;46.452;16.994;2023-05-10T09:42:12;99836.06;;;20.09;44.68
75629;BME280;64213;46.452;16.994;2023-05-10T09:45:14;99839.38;;;19.86;45.33
75629;BME280;64213;46.452;16.994;2023-05-10T09:48:16;99838.28;;;20.13;44.76
75629;BME280;64213;46.452;16.994;2023-05-10T09:51:23;99826.03;;;20.27;44.01
75629;BME280;64213;46.452;16.994;2023-05-10T09:54:25;99839.63;;;20.50;44.13
75629;BME280;64213;46.452;16.994;2023-05-10T09:57:26;99829.72;;;19.07;47.88
75629;BME280;64213;46.452;16.994;2023-05-10T10:00:35;99828.16;;;19.22;47.26
75629;BME280;64213;46.452;16.994;2023-05-10T10:03:42;99826.44;;;19.90;46.81
75629;BME280;64213;46.452;16.994;2023-05-10T10:06:44;99828.81;;;19.50;46.21
75629;BME280;64213;46.452;16.994;2023-05-10T10:09:46;99834.88;;;19.95;44.90
75629;BME280;64213;46.452;16.994;2023-05-10T10:12:48;99819.66;;;20.20;45.11
75629;BME280;64213;46.452;16.994;2023-05-10T10:15:52;99832.84;;;19.89;44.87
75629;BME280;64213;46.452;16.994;2023-05-10T10:18:54;99819.47;;;20.38;43.86
75629;BME280;64213;46.452;16.994;2023-05-10T10:21:57;99801.59;;;21.27;42.63
75629;BME280;64213;46.452;16.994;2023-05-10T10:25:00;99802.44;;;21.35;41.61
75629;BME280;64213;46.452;16.994;2023-05-10T10:28:26;99808.69;;;21.11;42.36
75629;BME280;64213;46.452;16.994;2023-05-10T10:31:46;99797.31;;;22.11;40.42
75629;BME280;64213;46.452;16.994;2023-05-10T10:34:49;99800.56;;;21.44;41.52
75629;BME280;64213;46.452;16.994;2023-05-10T10:37:51;99801.59;;;21.35;41.75
75629;BME280;64213;46.452;16.994;2023-05-10T10:41:08;99793.72;;;21.96;40.89
75629;BME280;64213;46.452;16.994;2023-05-10T10:47:28;99793.31;;;20.56;42.68
75629;BME280;64213;46.452;16.994;2023-05-10T10:50:43;99799.44;;;19.91;45.09
75629;BME280;64213;46.452;16.994;2023-05-10T10:53:47;99787.22;;;21.03;42.32
75629;BME280;64213;46.452;16.994;2023-05-10T10:57:12;99785.00;;;21.07;41.63
75629;BME280;64213;46.452;16.994;2023-05-10T11:00:31;99791.41;;;20.08;43.53
75629;BME280;64213;46.452;16.994;2023-05-10T11:03:33;99778.00;;;20.40;43.49
75629;BME280;64213;46.452;16.994;2023-05-10T11:06:36;99774.00;;;20.20;44.03
75629;BME280;64213;46.452;16.994;2023-05-10T11:09:40;99775.44;;;21.04;42.41
75629;BME280;64213;46.452;16.994;2023-05-10T11:13:12;99775.03;;;21.94;40.07
75629;BME280;64213;46.452;16.994;2023-05-10T11:19:16;99763.28;;;22.18;39.33
75629;BME280;64213;46.452;16.994;2023-05-10T11:22:19;99764.13;;;21.88;40.45
75629;BME280;64213;46.452;16.994;2023-05-10T11:25:26;99756.50;;;20.32;43.52
75629;BME280;64213;46.452;16.994;2023-05-10T11:28:28;99763.00;;;20.95;43.01
75629;BME280;64213;46.452;16.994;2023-05-10T11:31:30;99757.72;;;22.20;40.16
75629;BME280;64213;46.452;16.994;2023-05-10T11:34:32;99761.47;;;22.71;38.68
75629;BME280;64213;46.452;16.994;2023-05-10T11:37:35;99759.53;;;22.42;39.31
75629;BME280;64213;46.452;16.994;2023-05-10T11:40:38;99755.50;;;21.30;41.74
75629;BME280;64213;46.452;16.994;2023-05-10T11:43:42;99768.44;;;20.38;43.78
75629;BME280;64213;46.452;16.994;2023-05-10T11:46:44;99760.81;;;21.07;41.63
75629;BME280;64213;46.452;16.994;2023-05-10T11:49:48;99756.78;;;21.50;40.67
75629;BME280;64213;46.452;16.994;2023-05-10T11:52:54;99757.97;;;21.79;39.20
75629;BME280;64213;46.452;16.994;2023-05-10T11:56:05;99748.28;;;22.24;38.77
75629;BME280;64213;46.452;16.994;2023-05-10T11:59:07;99748.13;;;22.40;38.63
75629;BME280;64213;46.452;16.994;2023-05-10T12:02:10;99746.25;;;22.79;38.76
75629;BME280;64213;46.452;16.994;2023-05-10T12:05:12;99746.53;;;23.43;37.00
75629;BME280;64213;46.452;16.994;2023-05-10T12:08:16;99740.53;;;23.48;37.13
75629;BME280;64213;46.452;16.994;2023-05-10T12:11:25;99739.69;;;23.62;35.21
75629;BME280;64213;46.452;16.994;2023-05-10T12:14:27;99739.06;;;22.71;38.84
75629;BME280;64213;46.452;16.994;2023-05-10T12:17:30;99732.41;;;24.20;35.54
75629;BME280;64213;46.452;16.994;2023-05-10T12:20:32;99723.50;;;25.59;32.78
75629;BME280;64213;46.452;16.994;2023-05-10T12:23:34;99723.28;;;26.61;32.19
75629;BME280;64213;46.452;16.994;2023-05-10T12:26:36;99735.03;;;23.92;35.39
75629;BME280;64213;46.452;16.994;2023-05-10T12:29:52;99738.81;;;23.25;36.00
75629;BME280;64213;46.452;16.994;2023-05-10T12:33:01;99735.78;;;22.61;37.43
75629;BME280;64213;46.452;16.994;2023-05-10T12:36:03;99733.81;;;23.07;35.75
75629;BME280;64213;46.452;16.994;2023-05-10T12:39:05;99739.56;;;23.34;35.55
75629;BME280;64213;46.452;16.994;2023-05-10T12:42:07;99740.59;;;21.19;39.12
75629;BME280;64213;46.452;16.994;2023-05-10T12:45:09;99730.78;;;20.87;39.08
75629;BME280;64213;46.452;16.994;2023-05-10T12:48:11;99722.91;;;20.77;41.05
75629;BME280;64213;46.452;16.994;2023-05-10T12:51:13;99705.25;;;21.62;39.78
75629;BME280;64213;46.452;16.994;2023-05-10T12:54:18;99712.56;;;22.60;37.66
75629;BME280;64213;46.452;16.994;2023-05-10T12:57:21;99712.00;;;22.64;37.36
75629;BME280;64213;46.452;16.994;2023-05-10T13:00:23;99720.28;;;22.92;36.56
75629;BME280;64213;46.452;16.994;2023-05-10T13:03:25;99699.44;;;23.16;36.41
75629;BME280;64213;46.452;16.994;2023-05-10T13:06:27;99711.78;;;21.90;38.14
75629;BME280;64213;46.452;16.994;2023-05-10T13:09:29;99699.41;;;22.94;36.97
75629;BME280;64213;46.452;16.994;2023-05-10T13:12:31;99695.38;;;22.23;38.23
75629;BME280;64213;46.452;16.994;2023-05-10T13:15:33;99701.44;;;22.02;37.35
75629;BME280;64213;46.452;16.994;2023-05-10T13:18:35;99695.34;;;23.93;35.00
75629;BME280;64213;46.452;16.994;2023-05-10T13:21:37;99690.00;;;23.41;35.44
75629;BME280;64213;46.452;16.994;2023-05-10T13:24:39;99685.78;;;24.40;34.36
75629;BME280;64213;46.452;16.994;2023-05-10T13:27:41;99683.91;;;24.40;33.83
75629;BME280;64213;46.452;16.994;2023-05-10T13:30:43;99683.06;;;24.40;32.40
75629;BME280;64213;46.452;16.994;2023-05-10T13:33:45;99674.09;;;24.32;34.67
75629;BME280;64213;46.452;16.994;2023-05-10T13:36:47;99667.56;;;23.99;33.23
75629;BME280;64213;46.452;16.994;2023-05-10T13:39:49;99672.69;;;24.15;33.41
75629;BME280;64213;46.452;16.994;2023-05-10T13:42:51;99678.81;;;22.93;35.06
75629;BME280;64213;46.452;16.994;2023-05-10T13:45:54;99673.75;;;22.46;35.46
75629;BME280;64213;46.452;16.994;2023-05-10T13:48:56;99674.03;;;22.36;34.60
75629;BME280;64213;46.452;16.994;2023-05-10T13:51:58;99677.62;;;21.68;35.98
75629;BME280;64213;46.452;16.994;2023-05-10T13:55:00;99658.91;;;21.43;37.22
75629;BME280;64213;46.452;16.994;2023-05-10T13:58:02;99655.38;;;21.89;37.04
75629;BME280;64213;46.452;16.994;2023-05-10T14:01:04;99663.63;;;21.10;38.68
75629;BME280;64213;46.452;16.994;2023-05-10T14:04:06;99662.69;;;20.86;39.31
75629;BME280;64213;46.452;16.994;2023-05-10T14:07:12;99654.81;;;20.93;39.07
75629;BME280;64213;46.452;16.994;2023-05-10T14:10:13;99650.56;;;21.84;36.57
75629;BME280;64213;46.452;16.994;2023-05-10T14:13:15;99643.37;;;22.67;35.99
75629;BME280;64213;46.452;16.994;2023-05-10T14:16:17;99641.06;;;22.64;36.11
75629;BME280;64213;46.452;16.994;2023-05-10T14:19:19;99643.78;;;21.88;37.44
75629;BME280;64213;46.452;16.994;2023-05-10T14:22:21;99645.38;;;20.97;38.26
75629;BME280;64213;46.452;16.994;2023-05-10T14:25:24;99647.50;;;21.10;38.07
75629;BME280;64213;46.452;16.994;2023-05-10T14:28:26;99642.72;;;21.51;37.47
75629;BME280;64213;46.452;16.994;2023-05-10T14:31:28;99638.13;;;21.83;37.12
75629;BME280;64213;46.452;16.994;2023-05-10T14:34:32;99628.31;;;22.43;35.43
75629;BME280;64213;46.452;16.994;2023-05-10T14:37:34;99641.81;;;22.72;35.14
75629;BME280;64213;46.452;16.994;2023-05-10T14:40:36;99629.56;;;22.17;35.51
75629;BME280;64213;46.452;16.994;2023-05-10T14:43:38;99636.78;;;22.02;35.41
75629;BME280;64213;46.452;16.994;2023-05-10T14:46:40;99635.31;;;20.91;37.07
75629;BME280;64213;46.452;16.994;2023-05-10T14:49:42;99630.03;;;21.06;37.13
75629;BME280;64213;46.452;16.994;2023-05-10T14:52:44;99635.66;;;20.88;37.67
75629;BME280;64213;46.452;16.994;2023-05-10T14:55:46;99635.72;;;21.65;36.93
75629;BME280;64213;46.452;16.994;2023-05-10T14:58:49;99627.97;;;22.08;35.76
75629;BME280;64213;46.452;16.994;2023-05-10T15:01:51;99630.69;;;21.39;36.40
75629;BME280;64213;46.452;16.994;2023-05-10T15:04:53;99634.03;;;20.71;37.79
75629;BME280;64213;46.452;16.994;2023-05-10T15:07:56;99631.44;;;20.30;38.96
75629;BME280;64213;46.452;16.994;2023-05-10T15:10:58;99624.66;;;20.50;39.36
75629;BME280;64213;46.452;16.994;2023-05-10T15:13:59;99634.09;;;20.54;39.77
75629;BME280;64213;46.452;16.994;2023-05-10T15:17:02;99627.87;;;20.54;39.54
75629;BME280;64213;46.452;16.994;2023-05-10T15:20:04;99626.56;;;20.25;40.33
75629;BME280;64213;46.452;16.994;2023-05-10T15:23:06;99619.87;;;20.21;40.96
75629;BME280;64213;46.452;16.994;2023-05-10T15:26:08;99628.97;;;20.76;39.73
75629;BME280;64213;46.452;16.994;2023-05-10T15:29:10;99622.31;;;21.03;40.09
75629;BME280;64213;46.452;16.994;2023-05-10T15:32:12;99625.63;;;21.44;39.42
75629;BME280;64213;46.452;16.994;2023-05-10T15:35:14;99621.44;;;21.33;39.04
75629;BME280;64213;46.452;16.994;2023-05-10T15:38:17;99620.00;;;20.92;39.25
75629;BME280;64213;46.452;16.994;2023-05-10T15:41:20;99620.53;;;20.87;39.51
75629;BME280;64213;46.452;16.994;2023-05-10T15:44:22;99611.22;;;21.29;39.07
75629;BME280;64213;46.452;16.994;2023-05-10T15:47:26;99602.13;;;21.38;37.85
75629;BME280;64213;46.452;16.994;2023-05-10T15:50:29;99603.53;;;20.86;38.94
75629;BME280;64213;46.452;16.994;2023-05-10T15:53:31;99597.31;;;20.94;39.09
75629;BME280;64213;46.452;16.994;2023-05-10T15:56:33;99610.84;;;20.78;39.21
75629;BME280;64213;46.452;16.994;2023-05-10T15:59:35;99610.25;;;20.43;40.20
75629;BME280;64213;46.452;16.994;2023-05-10T16:02:39;99608.75;;;20.40;40.59
75629;BME280;64213;46.452;16.994;2023-05-10T16:05:41;99607.63;;;20.27;40.37
75629;BME280;64213;46.452;16.994;2023-05-10T16:08:43;99606.97;;;20.00;40.65
75629;BME280;64213;46.452;16.994;2023-05-10T16:11:45;99610.00;;;19.89;40.86
75629;BME280;64213;46.452;16.994;2023-05-10T16:14:47;99611.03;;;19.80;41.11
75629;BME280;64213;46.452;16.994;2023-05-10T16:17:49;99618.38;;;19.78;41.28
75629;BME280;64213;46.452;16.994;2023-05-10T16:20:52;99617.72;;;19.67;41.63
75629;BME280;64213;46.452;16.994;2023-05-10T16:23:54;99611.19;;;19.70;42.18
75629;BME280;64213;46.452;16.994;2023-05-10T16:26:56;99622.75;;;19.70;41.82
75629;BME280;64213;46.452;16.994;2023-05-10T16:29:58;99615.34;;;19.56;41.66